sensor_id;sensor_type;location;lat;lon;timestamp;P1;durP1;ratioP1;P2;durP2;ratioP2
45650;SDS011;31365;48.858;8.530;2022-12-11T00:02:03;8.67;;;7.70;;
45650;SDS011;31365;48.858;8.530;2022-12-11T00:04:31;8.73;;;7.83;;
45650;SDS011;31365;48.858;8.530;2022-12-11T00:07:01;9.57;;;8.43;;
45650;SDS011;31365;48.858;8.530;2022-12-11T00:09:29;9.53;;;7.53;;
45650;SDS011;31365;48.858;8.530;2022-12-11T00:11:58;8.73;;;7.77;;
45650;SDS011;31365;48.858;8.530;2022-12-11T00:14:28;8.37;;;7.43;;
45650;SDS011;31365;48.858;8.530;2022-12-11T00:16:57;9.57;;;7.17;;
45650;SDS011;31365;48.858;8.530;2022-12-11T00:19:26;7.87;;;6.73;;
45650;SDS011;31365;48.858;8.530;2022-12-11T00:21:54;7.77;;;6.23;;
45650;SDS011;31365;48.858;8.530;2022-12-11T00:24:24;7.37;;;6.17;;
45650;SDS011;31365;48.858;8.530;2022-12-11T00:26:53;6.67;;;5.77;;
45650;SDS011;31365;48.858;8.530;2022-12-11T00:29:21;6.37;;;5.23;;
45650;SDS011;31365;48.858;8.530;2022-12-11T00:31:50;6.43;;;5.60;;
45650;SDS011;31365;48.858;8.530;2022-12-11T00:34:18;6.20;;;5.60;;
45650;SDS011;31365;48.858;8.530;2022-12-11T00:36:47;7.17;;;6.23;;
45650;SDS011;31365;48.858;8.530;2022-12-11T00:39:15;6.67;;;5.67;;
45650;SDS011;31365;48.858;8.530;2022-12-11T00:41:45;7.20;;;6.13;;
45650;SDS011;31365;48.858;8.530;2022-12-11T00:44:14;6.73;;;5.80;;
45650;SDS011;31365;48.858;8.530;2022-12-11T00:46:42;7.30;;;5.73;;
45650;SDS011;31365;48.858;8.530;2022-12-11T00:49:10;5.97;;;5.40;;
45650;SDS011;31365;48.858;8.530;2022-12-11T00:51:39;6.20;;;5.60;;
45650;SDS011;31365;48.858;8.530;2022-12-11T00:54:08;6.83;;;5.70;;
45650;SDS011;31365;48.858;8.530;2022-12-11T00:56:37;6.20;;;5.60;;
45650;SDS011;31365;48.858;8.530;2022-12-11T00:59:06;6.63;;;5.80;;
45650;SDS011;31365;48.858;8.530;2022-12-11T01:01:35;6.77;;;6.13;;
45650;SDS011;31365;48.858;8.530;2022-12-11T01:04:04;5.93;;;5.27;;
45650;SDS011;31365;48.858;8.530;2022-12-11T01:06:33;6.57;;;5.87;;
45650;SDS011;31365;48.858;8.530;2022-12-11T01:09:01;8.77;;;5.87;;
45650;SDS011;31365;48.858;8.530;2022-12-11T01:11:47;7.50;;;6.70;;
45650;SDS011;31365;48.858;8.530;2022-12-11T01:14:17;9.10;;;8.20;;
45650;SDS011;31365;48.858;8.530;2022-12-11T01:16:46;7.20;;;6.43;;
45650;SDS011;31365;48.858;8.530;2022-12-11T01:19:15;7.87;;;6.73;;
45650;SDS011;31365;48.858;8.530;2022-12-11T01:21:43;7.53;;;6.70;;
45650;SDS011;31365;48.858;8.530;2022-12-11T01:24:12;8.60;;;7.00;;
45650;SDS011;31365;48.858;8.530;2022-12-11T01:26:40;8.60;;;7.63;;
45650;SDS011;31365;48.858;8.530;2022-12-11T01:29:09;7.70;;;6.47;;
45650;SDS011;31365;48.858;8.530;2022-12-11T01:31:39;11.30;;;8.27;;
45650;SDS011;31365;48.858;8.530;2022-12-11T01:34:08;11.17;;;8.93;;
45650;SDS011;31365;48.858;8.530;2022-12-11T01:36:38;11.10;;;9.47;;
45650;SDS011;31365;48.858;8.530;2022-12-11T01:39:06;11.53;;;9.50;;
45650;SDS011;31365;48.858;8.530;2022-12-11T01:41:35;13.00;;;10.23;;
45650;SDS011;31365;48.858;8.530;2022-12-11T01:44:05;12.70;;;10.10;;
45650;SDS011;31365;48.858;8.530;2022-12-11T01:46:56;14.57;;;11.43;;
45650;SDS011;31365;48.858;8.530;2022-12-11T01:49:25;14.40;;;12.10;;
45650;SDS011;31365;48.858;8.530;2022-12-11T01:51:57;14.50;;;11.53;;
45650;SDS011;31365;48.858;8.530;2022-12-11T01:54:31;13.53;;;11.57;;
45650;SDS011;31365;48.858;8.530;2022-12-11T01:57:02;18.00;;;11.93;;
45650;SDS011;31365;48.858;8.530;2022-12-11T01:59:35;15.97;;;12.30;;
45650;SDS011;31365;48.858;8.530;2022-12-11T02:02:10;17.93;;;13.57;;
45650;SDS011;31365;48.858;8.530;2022-12-11T02:04:48;17.40;;;13.13;;
45650;SDS011;31365;48.858;8.530;2022-12-11T02:07:21;15.57;;;12.67;;
45650;SDS011;31365;48.858;8.530;2022-12-11T02:09:50;19.03;;;13.27;;
45650;SDS011;31365;48.858;8.530;2022-12-11T02:12:21;12.73;;;11.17;;
45650;SDS011;31365;48.858;8.530;2022-12-11T02:14:58;15.53;;;12.23;;
45650;SDS011;31365;48.858;8.530;2022-12-11T02:17:42;14.33;;;11.23;;
45650;SDS011;31365;48.858;8.530;2022-12-11T02:20:19;17.73;;;13.40;;
45650;SDS011;31365;48.858;8.530;2022-12-11T02:23:06;35.03;;;25.73;;
45650;SDS011;31365;48.858;8.530;2022-12-11T02:26:19;27.67;;;20.47;;
45650;SDS011;31365;48.858;8.530;2022-12-11T02:29:05;25.40;;;16.83;;
45650;SDS011;31365;48.858;8.530;2022-12-11T02:31:40;22.13;;;16.13;;
45650;SDS011;31365;48.858;8.530;2022-12-11T02:34:18;20.90;;;15.73;;
45650;SDS011;31365;48.858;8.530;2022-12-11T02:36:55;21.87;;;16.80;;
45650;SDS011;31365;48.858;8.530;2022-12-11T02:39:31;18.87;;;15.03;;
45650;SDS011;31365;48.858;8.530;2022-12-11T02:42:05;20.20;;;14.67;;
45650;SDS011;31365;48.858;8.530;2022-12-11T02:44:39;19.20;;;15.13;;
45650;SDS011;31365;48.858;8.530;2022-12-11T02:47:11;22.90;;;16.80;;
45650;SDS011;31365;48.858;8.530;2022-12-11T02:49:46;16.63;;;13.60;;
45650;SDS011;31365;48.858;8.530;2022-12-11T02:52:17;19.30;;;14.53;;
45650;SDS011;31365;48.858;8.530;2022-12-11T02:54:50;16.70;;;13.77;;
45650;SDS011;31365;48.858;8.530;2022-12-11T02:57:24;14.13;;;12.40;;
45650;SDS011;31365;48.858;8.530;2022-12-11T03:00:03;14.33;;;12.17;;
45650;SDS011;31365;48.858;8.530;2022-12-11T03:02:35;16.50;;;13.57;;
45650;SDS011;31365;48.858;8.530;2022-12-11T03:05:06;17.60;;;13.57;;
45650;SDS011;31365;48.858;8.530;2022-12-11T03:07:37;16.53;;;13.43;;
45650;SDS011;31365;48.858;8.530;2022-12-11T03:10:09;15.80;;;12.47;;
45650;SDS011;31365;48.858;8.530;2022-12-11T03:12:43;15.67;;;12.40;;
45650;SDS011;31365;48.858;8.530;2022-12-11T03:15:21;14.57;;;12.43;;
45650;SDS011;31365;48.858;8.530;2022-12-11T03:17:59;16.33;;;12.93;;
45650;SDS011;31365;48.858;8.530;2022-12-11T03:20:42;15.73;;;12.60;;
45650;SDS011;31365;48.858;8.530;2022-12-11T03:23:16;16.93;;;12.37;;
45650;SDS011;31365;48.858;8.530;2022-12-11T03:25:55;16.57;;;12.83;;
45650;SDS011;31365;48.858;8.530;2022-12-11T03:28:28;16.10;;;12.70;;
45650;SDS011;31365;48.858;8.530;2022-12-11T03:31:08;14.90;;;12.50;;
45650;SDS011;31365;48.858;8.530;2022-12-11T03:33:41;14.57;;;12.27;;
45650;SDS011;31365;48.858;8.530;2022-12-11T03:36:17;15.17;;;12.90;;
45650;SDS011;31365;48.858;8.530;2022-12-11T03:38:53;15.67;;;12.40;;
45650;SDS011;31365;48.858;8.530;2022-12-11T03:41:27;15.27;;;11.93;;
45650;SDS011;31365;48.858;8.530;2022-12-11T03:44:02;16.07;;;12.47;;
45650;SDS011;31365;48.858;8.530;2022-12-11T03:46:33;17.90;;;13.63;;
45650;SDS011;31365;48.858;8.530;2022-12-11T03:49:05;16.40;;;11.87;;
45650;SDS011;31365;48.858;8.530;2022-12-11T03:51:42;16.50;;;13.90;;
45650;SDS011;31365;48.858;8.530;2022-12-11T03:54:15;15.80;;;12.83;;
45650;SDS011;31365;48.858;8.530;2022-12-11T03:56:44;14.83;;;12.60;;
45650;SDS011;31365;48.858;8.530;2022-12-11T03:59:15;15.63;;;12.93;;
45650;SDS011;31365;48.858;8.530;2022-12-11T04:01:46;14.30;;;12.10;;
45650;SDS011;31365;48.858;8.530;2022-12-11T04:04:14;13.33;;;11.53;;
45650;SDS011;31365;48.858;8.530;2022-12-11T04:06:45;13.07;;;10.43;;
45650;SDS011;31365;48.858;8.530;2022-12-11T04:09:14;12.87;;;10.63;;
45650;SDS011;31365;48.858;8.530;2022-12-11T04:11:43;14.23;;;10.80;;
45650;SDS011;31365;48.858;8.530;2022-12-11T04:14:12;11.67;;;10.37;;
45650;SDS011;31365;48.858;8.530;2022-12-11T04:17:01;13.27;;;10.47;;
45650;SDS011;31365;48.858;8.530;2022-12-11T04:19:29;12.30;;;10.27;;
45650;SDS011;31365;48.858;8.530;2022-12-11T04:22:27;11.80;;;9.77;;
45650;SDS011;31365;48.858;8.530;2022-12-11T04:25:13;12.63;;;9.87;;
45650;SDS011;31365;48.858;8.530;2022-12-11T04:27:42;11.50;;;9.77;;
45650;SDS011;31365;48.858;8.530;2022-12-11T04:30:17;11.97;;;9.50;;
45650;SDS011;31365;48.858;8.530;2022-12-11T04:32:51;12.77;;;10.00;;
45650;SDS011;31365;48.858;8.530;2022-12-11T04:35:21;11.73;;;9.50;;
45650;SDS011;31365;48.858;8.530;2022-12-11T04:37:50;10.90;;;8.93;;
45650;SDS011;31365;48.858;8.530;2022-12-11T04:40:20;11.37;;;9.53;;
45650;SDS011;31365;48.858;8.530;2022-12-11T04:42:49;11.23;;;9.40;;
45650;SDS011;31365;48.858;8.530;2022-12-11T04:45:18;11.83;;;9.80;;
45650;SDS011;31365;48.858;8.530;2022-12-11T04:47:47;11.47;;;10.27;;
45650;SDS011;31365;48.858;8.530;2022-12-11T04:59:37;15.97;;;11.17;;
45650;SDS011;31365;48.858;8.530;2022-12-11T05:02:06;14.73;;;11.50;;
45650;SDS011;31365;48.858;8.530;2022-12-11T05:04:35;13.80;;;11.27;;
45650;SDS011;31365;48.858;8.530;2022-12-11T05:07:03;12.80;;;11.07;;
45650;SDS011;31365;48.858;8.530;2022-12-11T05:09:31;14.77;;;11.53;;
45650;SDS011;31365;48.858;8.530;2022-12-11T05:12:00;13.37;;;10.77;;
45650;SDS011;31365;48.858;8.530;2022-12-11T05:14:29;13.50;;;11.67;;
45650;SDS011;31365;48.858;8.530;2022-12-11T05:16:59;15.00;;;10.67;;
45650;SDS011;31365;48.858;8.530;2022-12-11T05:19:28;14.90;;;11.83;;
45650;SDS011;31365;48.858;8.530;2022-12-11T05:21:57;15.57;;;13.03;;
45650;SDS011;31365;48.858;8.530;2022-12-11T05:24:25;13.90;;;11.33;;
45650;SDS011;31365;48.858;8.530;2022-12-11T05:26:54;12.37;;;10.77;;
45650;SDS011;31365;48.858;8.530;2022-12-11T05:29:23;13.90;;;11.37;;
45650;SDS011;31365;48.858;8.530;2022-12-11T05:31:52;14.83;;;11.43;;
45650;SDS011;31365;48.858;8.530;2022-12-11T05:34:22;14.30;;;10.77;;
45650;SDS011;31365;48.858;8.530;2022-12-11T05:36:51;14.43;;;11.40;;
45650;SDS011;31365;48.858;8.530;2022-12-11T05:39:19;14.20;;;11.07;;
45650;SDS011;31365;48.858;8.530;2022-12-11T05:41:48;14.37;;;11.50;;
45650;SDS011;31365;48.858;8.530;2022-12-11T05:44:16;15.70;;;11.90;;
45650;SDS011;31365;48.858;8.530;2022-12-11T05:46:45;12.60;;;10.43;;
45650;SDS011;31365;48.858;8.530;2022-12-11T05:49:13;13.70;;;10.97;;
45650;SDS011;31365;48.858;8.530;2022-12-11T05:51:46;14.23;;;11.60;;
45650;SDS011;31365;48.858;8.530;2022-12-11T05:54:15;13.03;;;11.03;;
45650;SDS011;31365;48.858;8.530;2022-12-11T05:56:44;13.33;;;11.23;;
45650;SDS011;31365;48.858;8.530;2022-12-11T05:59:12;14.13;;;11.37;;
45650;SDS011;31365;48.858;8.530;2022-12-11T06:01:41;14.83;;;11.23;;
45650;SDS011;31365;48.858;8.530;2022-12-11T06:04:11;16.27;;;11.87;;
45650;SDS011;31365;48.858;8.530;2022-12-11T06:06:39;16.30;;;11.53;;
45650;SDS011;31365;48.858;8.530;2022-12-11T06:09:11;12.87;;;11.10;;
45650;SDS011;31365;48.858;8.530;2022-12-11T06:11:41;13.20;;;10.87;;
45650;SDS011;31365;48.858;8.530;2022-12-11T06:14:10;14.83;;;11.20;;
45650;SDS011;31365;48.858;8.530;2022-12-11T06:16:40;13.47;;;10.80;;
45650;SDS011;31365;48.858;8.530;2022-12-11T06:19:11;12.97;;;9.80;;
45650;SDS011;31365;48.858;8.530;2022-12-11T06:21:40;11.40;;;9.77;;
45650;SDS011;31365;48.858;8.530;2022-12-11T06:24:10;11.67;;;9.53;;
45650;SDS011;31365;48.858;8.530;2022-12-11T06:26:39;12.07;;;9.50;;
45650;SDS011;31365;48.858;8.530;2022-12-11T06:29:07;11.90;;;9.67;;
45650;SDS011;31365;48.858;8.530;2022-12-11T06:31:38;12.27;;;10.97;;
45650;SDS011;31365;48.858;8.530;2022-12-11T06:34:07;11.50;;;9.37;;
45650;SDS011;31365;48.858;8.530;2022-12-11T06:36:39;10.97;;;8.67;;
45650;SDS011;31365;48.858;8.530;2022-12-11T06:39:07;10.50;;;9.00;;
45650;SDS011;31365;48.858;8.530;2022-12-11T06:41:39;9.57;;;8.57;;
45650;SDS011;31365;48.858;8.530;2022-12-11T06:44:08;13.47;;;8.87;;
45650;SDS011;31365;48.858;8.530;2022-12-11T06:46:36;11.63;;;8.70;;
45650;SDS011;31365;48.858;8.530;2022-12-11T06:49:05;11.27;;;8.77;;
45650;SDS011;31365;48.858;8.530;2022-12-11T06:51:33;11.23;;;9.20;;
45650;SDS011;31365;48.858;8.530;2022-12-11T06:54:02;12.43;;;9.40;;
45650;SDS011;31365;48.858;8.530;2022-12-11T06:56:32;14.93;;;9.70;;
45650;SDS011;31365;48.858;8.530;2022-12-11T06:59:02;10.47;;;8.70;;
45650;SDS011;31365;48.858;8.530;2022-12-11T07:01:33;12.00;;;9.70;;
45650;SDS011;31365;48.858;8.530;2022-12-11T07:04:02;10.60;;;9.23;;
45650;SDS011;31365;48.858;8.530;2022-12-11T07:06:30;10.20;;;9.00;;
45650;SDS011;31365;48.858;8.530;2022-12-11T07:09:01;11.23;;;8.67;;
45650;SDS011;31365;48.858;8.530;2022-12-11T07:11:31;11.10;;;8.90;;
45650;SDS011;31365;48.858;8.530;2022-12-11T07:13:59;10.53;;;8.40;;
45650;SDS011;31365;48.858;8.530;2022-12-11T07:16:29;10.97;;;8.50;;
45650;SDS011;31365;48.858;8.530;2022-12-11T07:18:58;9.93;;;7.30;;
45650;SDS011;31365;48.858;8.530;2022-12-11T07:21:27;9.40;;;7.30;;
45650;SDS011;31365;48.858;8.530;2022-12-11T07:23:55;8.60;;;7.30;;
45650;SDS011;31365;48.858;8.530;2022-12-11T07:26:24;8.63;;;7.63;;
45650;SDS011;31365;48.858;8.530;2022-12-11T08:07:15;12.30;;;10.33;;
45650;SDS011;31365;48.858;8.530;2022-12-11T08:09:44;11.70;;;10.40;;
45650;SDS011;31365;48.858;8.530;2022-12-11T08:12:12;11.97;;;10.27;;
45650;SDS011;31365;48.858;8.530;2022-12-11T08:14:40;11.43;;;9.67;;
45650;SDS011;31365;48.858;8.530;2022-12-11T08:17:08;10.77;;;9.33;;
45650;SDS011;31365;48.858;8.530;2022-12-11T08:19:37;14.60;;;11.73;;
45650;SDS011;31365;48.858;8.530;2022-12-11T08:22:05;12.13;;;9.53;;
45650;SDS011;31365;48.858;8.530;2022-12-11T08:24:35;11.87;;;9.63;;
45650;SDS011;31365;48.858;8.530;2022-12-11T08:27:04;12.13;;;9.23;;
45650;SDS011;31365;48.858;8.530;2022-12-11T08:29:33;12.07;;;10.13;;
45650;SDS011;31365;48.858;8.530;2022-12-11T08:32:02;11.23;;;8.83;;
45650;SDS011;31365;48.858;8.530;2022-12-11T08:34:37;9.80;;;8.73;;
45650;SDS011;31365;48.858;8.530;2022-12-11T08:37:06;15.50;;;11.73;;
45650;SDS011;31365;48.858;8.530;2022-12-11T08:39:36;13.43;;;10.67;;
45650;SDS011;31365;48.858;8.530;2022-12-11T08:42:04;10.97;;;9.47;;
45650;SDS011;31365;48.858;8.530;2022-12-11T08:44:33;12.87;;;9.50;;
45650;SDS011;31365;48.858;8.530;2022-12-11T08:47:02;10.77;;;9.30;;
45650;SDS011;31365;48.858;8.530;2022-12-11T08:49:30;12.30;;;9.90;;
45650;SDS011;31365;48.858;8.530;2022-12-11T08:52:00;13.23;;;9.97;;
45650;SDS011;31365;48.858;8.530;2022-12-11T08:54:29;11.47;;;9.33;;
45650;SDS011;31365;48.858;8.530;2022-12-11T08:57:00;11.70;;;9.67;;
45650;SDS011;31365;48.858;8.530;2022-12-11T08:59:28;11.33;;;9.50;;
45650;SDS011;31365;48.858;8.530;2022-12-11T09:09:44;9.83;;;8.27;;
45650;SDS011;31365;48.858;8.530;2022-12-11T09:12:14;12.23;;;10.73;;
45650;SDS011;31365;48.858;8.530;2022-12-11T09:14:43;11.03;;;8.77;;
45650;SDS011;31365;48.858;8.530;2022-12-11T09:17:13;12.60;;;8.93;;
45650;SDS011;31365;48.858;8.530;2022-12-11T09:19:41;11.63;;;8.87;;
45650;SDS011;31365;48.858;8.530;2022-12-11T09:22:10;8.70;;;7.80;;
45650;SDS011;31365;48.858;8.530;2022-12-11T09:24:39;9.63;;;7.93;;
45650;SDS011;31365;48.858;8.530;2022-12-11T09:27:07;11.27;;;9.20;;
45650;SDS011;31365;48.858;8.530;2022-12-11T09:32:07;13.63;;;11.03;;
45650;SDS011;31365;48.858;8.530;2022-12-11T09:34:36;9.40;;;7.57;;
45650;SDS011;31365;48.858;8.530;2022-12-11T09:37:04;8.93;;;7.37;;
45650;SDS011;31365;48.858;8.530;2022-12-11T09:39:32;8.57;;;7.60;;
45650;SDS011;31365;48.858;8.530;2022-12-11T09:42:02;12.13;;;8.80;;
45650;SDS011;31365;48.858;8.530;2022-12-11T09:44:42;16.10;;;13.87;;
45650;SDS011;31365;48.858;8.530;2022-12-11T09:47:16;15.63;;;13.30;;
45650;SDS011;31365;48.858;8.530;2022-12-11T09:49:52;10.50;;;8.47;;
45650;SDS011;31365;48.858;8.530;2022-12-11T09:52:38;7.73;;;6.73;;
45650;SDS011;31365;48.858;8.530;2022-12-11T09:55:21;8.90;;;7.13;;
45650;SDS011;31365;48.858;8.530;2022-12-11T09:57:55;8.00;;;7.20;;
45650;SDS011;31365;48.858;8.530;2022-12-11T10:00:38;8.40;;;7.37;;
45650;SDS011;31365;48.858;8.530;2022-12-11T10:03:23;8.23;;;7.37;;
45650;SDS011;31365;48.858;8.530;2022-12-11T10:06:30;7.90;;;6.77;;
45650;SDS011;31365;48.858;8.530;2022-12-11T10:09:11;9.07;;;7.67;;
45650;SDS011;31365;48.858;8.530;2022-12-11T10:11:56;9.87;;;8.83;;
45650;SDS011;31365;48.858;8.530;2022-12-11T10:14:46;8.10;;;7.30;;
45650;SDS011;31365;48.858;8.530;2022-12-11T10:17:40;8.40;;;7.50;;
45650;SDS011;31365;48.858;8.530;2022-12-11T10:20:15;8.97;;;7.90;;
45650;SDS011;31365;48.858;8.530;2022-12-11T10:22:52;9.07;;;7.57;;
45650;SDS011;31365;48.858;8.530;2022-12-11T10:25:24;8.80;;;7.90;;
45650;SDS011;31365;48.858;8.530;2022-12-11T10:27:57;9.10;;;7.93;;
45650;SDS011;31365;48.858;8.530;2022-12-11T10:30:32;13.27;;;11.60;;
45650;SDS011;31365;48.858;8.530;2022-12-11T10:33:11;11.37;;;8.87;;
45650;SDS011;31365;48.858;8.530;2022-12-11T10:35:49;9.63;;;8.33;;
45650;SDS011;31365;48.858;8.530;2022-12-11T10:38:20;9.27;;;8.30;;
45650;SDS011;31365;48.858;8.530;2022-12-11T10:40:55;9.47;;;8.30;;
45650;SDS011;31365;48.858;8.530;2022-12-11T10:43:31;9.70;;;8.70;;
45650;SDS011;31365;48.858;8.530;2022-12-11T10:46:03;11.60;;;8.33;;
45650;SDS011;31365;48.858;8.530;2022-12-11T10:48:35;10.33;;;7.53;;
45650;SDS011;31365;48.858;8.530;2022-12-11T10:51:13;8.17;;;6.97;;
45650;SDS011;31365;48.858;8.530;2022-12-11T10:53:42;7.70;;;6.47;;
45650;SDS011;31365;48.858;8.530;2022-12-11T10:56:23;7.80;;;6.83;;
45650;SDS011;31365;48.858;8.530;2022-12-11T10:58:55;9.07;;;7.57;;
45650;SDS011;31365;48.858;8.530;2022-12-11T11:01:26;10.87;;;9.10;;
45650;SDS011;31365;48.858;8.530;2022-12-11T11:04:01;9.00;;;7.97;;
45650;SDS011;31365;48.858;8.530;2022-12-11T11:06:32;9.87;;;7.83;;
45650;SDS011;31365;48.858;8.530;2022-12-11T11:09:02;9.53;;;8.53;;
45650;SDS011;31365;48.858;8.530;2022-12-11T11:11:32;10.53;;;8.80;;
45650;SDS011;31365;48.858;8.530;2022-12-11T11:14:11;7.90;;;5.87;;
45650;SDS011;31365;48.858;8.530;2022-12-11T11:16:45;9.03;;;6.37;;
45650;SDS011;31365;48.858;8.530;2022-12-11T11:19:18;11.77;;;7.33;;
45650;SDS011;31365;48.858;8.530;2022-12-11T11:21:51;7.87;;;6.67;;
45650;SDS011;31365;48.858;8.530;2022-12-11T11:24:26;7.43;;;6.23;;
45650;SDS011;31365;48.858;8.530;2022-12-11T11:26:59;7.37;;;5.87;;
45650;SDS011;31365;48.858;8.530;2022-12-11T11:29:39;11.83;;;7.37;;
45650;SDS011;31365;48.858;8.530;2022-12-11T11:32:14;14.90;;;10.83;;
45650;SDS011;31365;48.858;8.530;2022-12-11T11:34:49;32.87;;;20.00;;
45650;SDS011;31365;48.858;8.530;2022-12-11T11:37:21;8.63;;;6.80;;
45650;SDS011;31365;48.858;8.530;2022-12-11T11:40:01;8.63;;;7.43;;
45650;SDS011;31365;48.858;8.530;2022-12-11T11:42:40;14.33;;;9.90;;
45650;SDS011;31365;48.858;8.530;2022-12-11T11:45:19;18.13;;;10.77;;
45650;SDS011;31365;48.858;8.530;2022-12-11T11:47:57;9.07;;;7.17;;
45650;SDS011;31365;48.858;8.530;2022-12-11T11:50:39;7.90;;;6.40;;
45650;SDS011;31365;48.858;8.530;2022-12-11T11:53:16;6.47;;;5.57;;
45650;SDS011;31365;48.858;8.530;2022-12-11T11:55:56;9.53;;;7.33;;
45650;SDS011;31365;48.858;8.530;2022-12-11T11:58:36;7.33;;;6.30;;
45650;SDS011;31365;48.858;8.530;2022-12-11T12:01:11;9.27;;;7.13;;
45650;SDS011;31365;48.858;8.530;2022-12-11T12:03:43;8.80;;;6.43;;
45650;SDS011;31365;48.858;8.530;2022-12-11T12:06:16;9.70;;;7.03;;
45650;SDS011;31365;48.858;8.530;2022-12-11T12:09:01;8.67;;;7.50;;
45650;SDS011;31365;48.858;8.530;2022-12-11T12:11:46;9.80;;;7.33;;
45650;SDS011;31365;48.858;8.530;2022-12-11T12:14:24;7.40;;;5.93;;
45650;SDS011;31365;48.858;8.530;2022-12-11T12:17:20;12.30;;;6.77;;
45650;SDS011;31365;48.858;8.530;2022-12-11T12:20:08;9.27;;;7.37;;
45650;SDS011;31365;48.858;8.530;2022-12-11T12:22:55;23.93;;;10.20;;
45650;SDS011;31365;48.858;8.530;2022-12-11T12:25:42;8.30;;;6.07;;
45650;SDS011;31365;48.858;8.530;2022-12-11T12:28:21;6.87;;;5.47;;
45650;SDS011;31365;48.858;8.530;2022-12-11T12:31:06;8.17;;;6.70;;
45650;SDS011;31365;48.858;8.530;2022-12-11T12:33:52;9.23;;;7.33;;
45650;SDS011;31365;48.858;8.530;2022-12-11T12:36:33;8.97;;;6.43;;
45650;SDS011;31365;48.858;8.530;2022-12-11T12:39:16;7.87;;;6.50;;
45650;SDS011;31365;48.858;8.530;2022-12-11T12:42:01;9.17;;;6.43;;
45650;SDS011;31365;48.858;8.530;2022-12-11T12:44:40;7.63;;;6.53;;
45650;SDS011;31365;48.858;8.530;2022-12-11T12:47:23;11.67;;;7.23;;
45650;SDS011;31365;48.858;8.530;2022-12-11T12:49:57;9.90;;;6.93;;
45650;SDS011;31365;48.858;8.530;2022-12-11T12:52:30;8.23;;;6.87;;
45650;SDS011;31365;48.858;8.530;2022-12-11T12:55:12;9.93;;;8.27;;
45650;SDS011;31365;48.858;8.530;2022-12-11T12:57:49;8.67;;;7.50;;
45650;SDS011;31365;48.858;8.530;2022-12-11T13:00:26;11.33;;;8.07;;
45650;SDS011;31365;48.858;8.530;2022-12-11T13:03:02;10.73;;;7.83;;
45650;SDS011;31365;48.858;8.530;2022-12-11T13:05:43;12.83;;;8.57;;
45650;SDS011;31365;48.858;8.530;2022-12-11T13:08:23;12.73;;;7.87;;
45650;SDS011;31365;48.858;8.530;2022-12-11T13:11:00;20.53;;;10.23;;
45650;SDS011;31365;48.858;8.530;2022-12-11T13:13:34;12.60;;;8.07;;
45650;SDS011;31365;48.858;8.530;2022-12-11T13:16:07;9.03;;;6.87;;
45650;SDS011;31365;48.858;8.530;2022-12-11T13:18:52;10.13;;;8.23;;
45650;SDS011;31365;48.858;8.530;2022-12-11T13:21:24;7.77;;;6.70;;
45650;SDS011;31365;48.858;8.530;2022-12-11T13:24:11;11.43;;;7.63;;
45650;SDS011;31365;48.858;8.530;2022-12-11T13:26:45;15.50;;;8.30;;
45650;SDS011;31365;48.858;8.530;2022-12-11T13:29:27;9.93;;;7.73;;
45650;SDS011;31365;48.858;8.530;2022-12-11T13:32:03;15.83;;;8.00;;
45650;SDS011;31365;48.858;8.530;2022-12-11T13:34:50;12.30;;;10.67;;
45650;SDS011;31365;48.858;8.530;2022-12-11T13:37:23;11.07;;;8.70;;
45650;SDS011;31365;48.858;8.530;2022-12-11T13:39:57;15.87;;;9.83;;
45650;SDS011;31365;48.858;8.530;2022-12-11T13:42:31;13.77;;;10.87;;
45650;SDS011;31365;48.858;8.530;2022-12-11T13:45:04;10.10;;;8.50;;
45650;SDS011;31365;48.858;8.530;2022-12-11T13:47:44;12.40;;;9.03;;
45650;SDS011;31365;48.858;8.530;2022-12-11T13:50:14;12.43;;;11.13;;
45650;SDS011;31365;48.858;8.530;2022-12-11T13:52:54;21.97;;;10.80;;
45650;SDS011;31365;48.858;8.530;2022-12-11T13:55:25;8.63;;;7.00;;
45650;SDS011;31365;48.858;8.530;2022-12-11T13:57:59;13.63;;;7.77;;
45650;SDS011;31365;48.858;8.530;2022-12-11T14:00:28;9.33;;;7.70;;
45650;SDS011;31365;48.858;8.530;2022-12-11T14:02:59;11.33;;;9.60;;
45650;SDS011;31365;48.858;8.530;2022-12-11T14:05:32;9.00;;;6.67;;
45650;SDS011;31365;48.858;8.530;2022-12-11T14:08:04;7.43;;;6.37;;
45650;SDS011;31365;48.858;8.530;2022-12-11T14:10:35;8.30;;;7.17;;
45650;SDS011;31365;48.858;8.530;2022-12-11T14:13:20;8.73;;;6.50;;
45650;SDS011;31365;48.858;8.530;2022-12-11T14:15:51;13.20;;;7.53;;
45650;SDS011;31365;48.858;8.530;2022-12-11T14:18:22;8.90;;;6.87;;
45650;SDS011;31365;48.858;8.530;2022-12-11T14:20:56;13.27;;;10.80;;
45650;SDS011;31365;48.858;8.530;2022-12-11T14:23:28;9.23;;;7.50;;
45650;SDS011;31365;48.858;8.530;2022-12-11T14:25:58;6.87;;;6.17;;
45650;SDS011;31365;48.858;8.530;2022-12-11T14:28:34;7.40;;;6.37;;
45650;SDS011;31365;48.858;8.530;2022-12-11T14:31:05;8.67;;;6.83;;
45650;SDS011;31365;48.858;8.530;2022-12-11T14:33:34;9.40;;;7.33;;
45650;SDS011;31365;48.858;8.530;2022-12-11T14:36:07;11.40;;;7.47;;
45650;SDS011;31365;48.858;8.530;2022-12-11T14:38:38;9.80;;;8.50;;
45650;SDS011;31365;48.858;8.530;2022-12-11T14:41:16;8.80;;;7.40;;
45650;SDS011;31365;48.858;8.530;2022-12-11T14:43:52;16.97;;;14.17;;
45650;SDS011;31365;48.858;8.530;2022-12-11T14:46:28;16.17;;;12.80;;
45650;SDS011;31365;48.858;8.530;2022-12-11T14:49:06;13.63;;;11.53;;
45650;SDS011;31365;48.858;8.530;2022-12-11T14:51:44;14.33;;;11.50;;
45650;SDS011;31365;48.858;8.530;2022-12-11T14:54:16;13.03;;;11.37;;
45650;SDS011;31365;48.858;8.530;2022-12-11T14:56:54;14.97;;;12.70;;
45650;SDS011;31365;48.858;8.530;2022-12-11T14:59:26;15.00;;;11.87;;
45650;SDS011;31365;48.858;8.530;2022-12-11T15:01:59;18.00;;;12.57;;
45650;SDS011;31365;48.858;8.530;2022-12-11T15:04:31;14.87;;;12.70;;
45650;SDS011;31365;48.858;8.530;2022-12-11T15:07:00;14.87;;;12.60;;
45650;SDS011;31365;48.858;8.530;2022-12-11T15:09:35;15.57;;;12.57;;
45650;SDS011;31365;48.858;8.530;2022-12-11T15:12:07;14.57;;;12.40;;
45650;SDS011;31365;48.858;8.530;2022-12-11T15:14:43;15.43;;;13.03;;
45650;SDS011;31365;48.858;8.530;2022-12-11T15:17:19;16.13;;;13.03;;
45650;SDS011;31365;48.858;8.530;2022-12-11T15:19:51;15.17;;;12.70;;
45650;SDS011;31365;48.858;8.530;2022-12-11T15:22:23;16.53;;;13.23;;
45650;SDS011;31365;48.858;8.530;2022-12-11T15:24:58;18.13;;;14.27;;
45650;SDS011;31365;48.858;8.530;2022-12-11T15:27:29;16.00;;;13.40;;
45650;SDS011;31365;48.858;8.530;2022-12-11T15:30:14;13.60;;;11.97;;
45650;SDS011;31365;48.858;8.530;2022-12-11T15:33:01;17.70;;;13.77;;
45650;SDS011;31365;48.858;8.530;2022-12-11T15:38:48;18.03;;;14.43;;
45650;SDS011;31365;48.858;8.530;2022-12-11T15:41:17;15.63;;;13.73;;
45650;SDS011;31365;48.858;8.530;2022-12-11T15:43:49;15.13;;;13.07;;
45650;SDS011;31365;48.858;8.530;2022-12-11T15:46:25;15.33;;;12.60;;
45650;SDS011;31365;48.858;8.530;2022-12-11T15:48:54;16.57;;;12.87;;
45650;SDS011;31365;48.858;8.530;2022-12-11T15:51:23;15.70;;;14.00;;
45650;SDS011;31365;48.858;8.530;2022-12-11T15:53:52;18.47;;;14.30;;
45650;SDS011;31365;48.858;8.530;2022-12-11T15:56:21;17.00;;;13.77;;
45650;SDS011;31365;48.858;8.530;2022-12-11T15:58:49;15.53;;;13.53;;
45650;SDS011;31365;48.858;8.530;2022-12-11T16:01:19;18.40;;;14.30;;
45650;SDS011;31365;48.858;8.530;2022-12-11T16:03:56;15.52;;;13.38;;
45650;SDS011;31365;48.858;8.530;2022-12-11T16:06:30;15.60;;;13.57;;
45650;SDS011;31365;48.858;8.530;2022-12-11T16:08:59;16.73;;;13.80;;
45650;SDS011;31365;48.858;8.530;2022-12-11T16:11:29;14.83;;;13.23;;